sensor_id;sensor_type;location;lat;lon;timestamp;P1;durP1;ratioP1;P2;durP2;ratioP2
61897;SDS011;47850;50.274;18.908;2022-07-10T00:02:15;13.20;;;5.50;;
61897;SDS011;47850;50.274;18.908;2022-07-10T00:04:42;10.80;;;6.00;;
61897;SDS011;47850;50.274;18.908;2022-07-10T00:07:09;10.60;;;5.20;;
61897;SDS011;47850;50.274;18.908;2022-07-10T00:09:35;10.20;;;5.50;;
61897;SDS011;47850;50.274;18.908;2022-07-10T00:12:02;11.90;;;6.40;;
61897;SDS011;47850;50.274;18.908;2022-07-10T00:14:30;10.00;;;6.10;;
61897;SDS011;47850;50.274;18.908;2022-07-10T00:16:56;8.90;;;6.10;;
61897;SDS011;47850;50.274;18.908;2022-07-10T00:19:23;10.90;;;6.60;;
61897;SDS011;47850;50.274;18.908;2022-07-10T00:21:49;12.10;;;6.10;;
61897;SDS011;47850;50.274;18.908;2022-07-10T00:24:16;11.50;;;6.20;;
61897;SDS011;47850;50.274;18.908;2022-07-10T00:26:42;10.70;;;6.80;;
61897;SDS011;47850;50.274;18.908;2022-07-10T00:29:09;22.40;;;6.90;;
61897;SDS011;47850;50.274;18.908;2022-07-10T00:31:36;11.50;;;6.10;;
61897;SDS011;47850;50.274;18.908;2022-07-10T00:34:02;12.10;;;7.00;;
61897;SDS011;47850;50.274;18.908;2022-07-10T00:36:29;13.60;;;7.10;;
61897;SDS011;47850;50.274;18.908;2022-07-10T00:38:55;11.80;;;6.70;;
61897;SDS011;47850;50.274;18.908;2022-07-10T00:41:22;10.70;;;6.20;;
61897;SDS011;47850;50.274;18.908;2022-07-10T00:43:55;10.50;;;6.60;;
61897;SDS011;47850;50.274;18.908;2022-07-10T00:46:24;10.30;;;6.40;;
61897;SDS011;47850;50.274;18.908;2022-07-10T00:48:53;9.00;;;6.20;;
61897;SDS011;47850;50.274;18.908;2022-07-10T00:51:20;9.90;;;6.90;;
61897;SDS011;47850;50.274;18.908;2022-07-10T00:56:18;9.50;;;6.40;;
61897;SDS011;47850;50.274;18.908;2022-07-10T00:58:48;10.40;;;6.70;;
61897;SDS011;47850;50.274;18.908;2022-07-10T01:01:15;11.10;;;7.20;;
61897;SDS011;47850;50.274;18.908;2022-07-10T01:03:43;9.00;;;6.10;;
61897;SDS011;47850;50.274;18.908;2022-07-10T01:06:12;8.80;;;6.60;;
61897;SDS011;47850;50.274;18.908;2022-07-10T01:08:40;11.00;;;7.20;;
61897;SDS011;47850;50.274;18.908;2022-07-10T01:11:08;11.80;;;7.20;;
61897;SDS011;47850;50.274;18.908;2022-07-10T01:13:36;10.70;;;7.40;;
61897;SDS011;47850;50.274;18.908;2022-07-10T01:16:03;8.70;;;6.60;;
61897;SDS011;47850;50.274;18.908;2022-07-10T01:18:30;9.50;;;6.80;;
61897;SDS011;47850;50.274;18.908;2022-07-10T01:20:57;9.10;;;7.00;;
61897;SDS011;47850;50.274;18.908;2022-07-10T01:23:24;12.70;;;6.80;;
61897;SDS011;47850;50.274;18.908;2022-07-10T01:25:50;9.20;;;6.70;;
61897;SDS011;47850;50.274;18.908;2022-07-10T01:28:17;9.80;;;6.60;;
61897;SDS011;47850;50.274;18.908;2022-07-10T01:30:49;11.70;;;6.90;;
61897;SDS011;47850;50.274;18.908;2022-07-10T01:33:16;6.90;;;5.00;;
61897;SDS011;47850;50.274;18.908;2022-07-10T01:35:42;10.30;;;6.30;;
61897;SDS011;47850;50.274;18.908;2022-07-10T01:38:09;12.30;;;7.10;;
61897;SDS011;47850;50.274;18.908;2022-07-10T01:40:36;13.40;;;6.60;;
61897;SDS011;47850;50.274;18.908;2022-07-10T01:43:02;10.70;;;6.70;;
61897;SDS011;47850;50.274;18.908;2022-07-10T01:45:29;13.00;;;7.20;;
61897;SDS011;47850;50.274;18.908;2022-07-10T01:47:55;11.70;;;7.70;;
61897;SDS011;47850;50.274;18.908;2022-07-10T01:50:23;10.30;;;6.50;;
61897;SDS011;47850;50.274;18.908;2022-07-10T01:52:50;10.00;;;6.20;;
61897;SDS011;47850;50.274;18.908;2022-07-10T01:55:16;9.30;;;7.10;;
61897;SDS011;47850;50.274;18.908;2022-07-10T01:57:43;9.00;;;6.20;;
61897;SDS011;47850;50.274;18.908;2022-07-10T02:00:10;10.00;;;6.40;;
61897;SDS011;47850;50.274;18.908;2022-07-10T02:02:37;8.50;;;5.00;;
61897;SDS011;47850;50.274;18.908;2022-07-10T02:05:03;8.00;;;5.50;;
61897;SDS011;47850;50.274;18.908;2022-07-10T02:07:30;7.90;;;5.30;;
61897;SDS011;47850;50.274;18.908;2022-07-10T02:09:57;8.20;;;5.50;;
61897;SDS011;47850;50.274;18.908;2022-07-10T02:12:23;8.60;;;5.30;;
61897;SDS011;47850;50.274;18.908;2022-07-10T02:14:50;8.20;;;5.40;;
61897;SDS011;47850;50.274;18.908;2022-07-10T02:17:16;8.40;;;6.10;;
61897;SDS011;47850;50.274;18.908;2022-07-10T02:19:43;7.60;;;5.20;;
61897;SDS011;47850;50.274;18.908;2022-07-10T02:22:09;7.00;;;5.60;;
61897;SDS011;47850;50.274;18.908;2022-07-10T02:24:36;8.30;;;5.80;;
61897;SDS011;47850;50.274;18.908;2022-07-10T02:27:03;8.20;;;5.80;;
61897;SDS011;47850;50.274;18.908;2022-07-10T02:29:30;7.30;;;5.50;;
61897;SDS011;47850;50.274;18.908;2022-07-10T02:31:56;15.70;;;5.90;;
61897;SDS011;47850;50.274;18.908;2022-07-10T02:34:23;8.50;;;5.00;;
61897;SDS011;47850;50.274;18.908;2022-07-10T02:36:49;7.30;;;5.60;;
61897;SDS011;47850;50.274;18.908;2022-07-10T02:39:16;7.90;;;5.40;;
61897;SDS011;47850;50.274;18.908;2022-07-10T02:41:43;7.40;;;5.20;;
61897;SDS011;47850;50.274;18.908;2022-07-10T02:44:10;9.90;;;4.70;;
61897;SDS011;47850;50.274;18.908;2022-07-10T02:46:37;8.10;;;5.00;;
61897;SDS011;47850;50.274;18.908;2022-07-10T02:49:04;7.60;;;4.60;;
61897;SDS011;47850;50.274;18.908;2022-07-10T02:51:31;7.50;;;4.70;;
61897;SDS011;47850;50.274;18.908;2022-07-10T02:53:57;7.70;;;5.00;;
61897;SDS011;47850;50.274;18.908;2022-07-10T02:56:25;6.60;;;4.20;;
61897;SDS011;47850;50.274;18.908;2022-07-10T02:58:51;9.30;;;5.50;;
61897;SDS011;47850;50.274;18.908;2022-07-10T03:01:18;7.80;;;4.60;;
61897;SDS011;47850;50.274;18.908;2022-07-10T03:03:44;6.90;;;4.70;;
61897;SDS011;47850;50.274;18.908;2022-07-10T03:06:11;7.90;;;4.90;;
61897;SDS011;47850;50.274;18.908;2022-07-10T03:08:37;6.70;;;5.00;;
61897;SDS011;47850;50.274;18.908;2022-07-10T03:11:04;8.80;;;5.40;;
61897;SDS011;47850;50.274;18.908;2022-07-10T03:13:31;8.30;;;4.80;;
61897;SDS011;47850;50.274;18.908;2022-07-10T03:15:58;8.00;;;5.40;;
61897;SDS011;47850;50.274;18.908;2022-07-10T03:18:24;8.60;;;4.80;;
61897;SDS011;47850;50.274;18.908;2022-07-10T03:20:51;8.40;;;5.40;;
61897;SDS011;47850;50.274;18.908;2022-07-10T03:23:17;7.80;;;5.00;;
61897;SDS011;47850;50.274;18.908;2022-07-10T03:25:44;6.60;;;4.30;;
61897;SDS011;47850;50.274;18.908;2022-07-10T03:28:10;6.00;;;4.20;;
61897;SDS011;47850;50.274;18.908;2022-07-10T03:30:37;6.50;;;3.90;;
61897;SDS011;47850;50.274;18.908;2022-07-10T03:33:04;6.30;;;3.60;;
61897;SDS011;47850;50.274;18.908;2022-07-10T03:35:30;6.60;;;4.10;;
61897;SDS011;47850;50.274;18.908;2022-07-10T03:38:00;7.40;;;3.60;;
61897;SDS011;47850;50.274;18.908;2022-07-10T03:40:27;5.60;;;3.10;;
61897;SDS011;47850;50.274;18.908;2022-07-10T03:42:54;6.60;;;2.60;;
61897;SDS011;47850;50.274;18.908;2022-07-10T03:45:20;2.80;;;2.00;;
61897;SDS011;47850;50.274;18.908;2022-07-10T03:47:47;3.40;;;2.70;;
61897;SDS011;47850;50.274;18.908;2022-07-10T03:50:13;5.50;;;2.40;;
61897;SDS011;47850;50.274;18.908;2022-07-10T03:52:40;7.00;;;2.70;;
61897;SDS011;47850;50.274;18.908;2022-07-10T03:55:07;5.70;;;2.80;;
61897;SDS011;47850;50.274;18.908;2022-07-10T03:57:34;5.10;;;3.40;;
61897;SDS011;47850;50.274;18.908;2022-07-10T04:00:23;5.10;;;3.10;;
61897;SDS011;47850;50.274;18.908;2022-07-10T04:03:09;3.90;;;3.10;;
61897;SDS011;47850;50.274;18.908;2022-07-10T04:05:36;5.80;;;3.40;;
61897;SDS011;47850;50.274;18.908;2022-07-10T04:08:03;6.40;;;3.20;;
61897;SDS011;47850;50.274;18.908;2022-07-10T04:10:30;6.00;;;4.10;;
61897;SDS011;47850;50.274;18.908;2022-07-10T04:12:57;6.50;;;4.10;;
61897;SDS011;47850;50.274;18.908;2022-07-10T04:15:24;5.90;;;3.40;;
61897;SDS011;47850;50.274;18.908;2022-07-10T04:17:52;6.10;;;3.40;;
61897;SDS011;47850;50.274;18.908;2022-07-10T04:20:18;7.90;;;4.30;;
61897;SDS011;47850;50.274;18.908;2022-07-10T04:22:45;5.50;;;3.80;;
61897;SDS011;47850;50.274;18.908;2022-07-10T04:25:12;4.60;;;4.10;;
61897;SDS011;47850;50.274;18.908;2022-07-10T04:27:39;5.30;;;4.10;;
61897;SDS011;47850;50.274;18.908;2022-07-10T04:30:07;11.50;;;6.50;;
61897;SDS011;47850;50.274;18.908;2022-07-10T04:32:33;8.40;;;5.60;;
61897;SDS011;47850;50.274;18.908;2022-07-10T04:35:00;12.80;;;6.50;;
61897;SDS011;47850;50.274;18.908;2022-07-10T04:37:27;6.50;;;4.80;;
61897;SDS011;47850;50.274;18.908;2022-07-10T04:39:55;6.90;;;5.90;;
61897;SDS011;47850;50.274;18.908;2022-07-10T04:42:21;6.80;;;5.20;;
61897;SDS011;47850;50.274;18.908;2022-07-10T04:44:48;8.20;;;5.70;;
61897;SDS011;47850;50.274;18.908;2022-07-10T04:47:14;9.70;;;6.10;;
61897;SDS011;47850;50.274;18.908;2022-07-10T04:49:41;5.70;;;4.60;;
61897;SDS011;47850;50.274;18.908;2022-07-10T04:52:07;5.20;;;4.50;;
61897;SDS011;47850;50.274;18.908;2022-07-10T04:54:34;4.20;;;3.50;;
61897;SDS011;47850;50.274;18.908;2022-07-10T04:57:01;5.30;;;4.60;;
61897;SDS011;47850;50.274;18.908;2022-07-10T04:59:28;6.70;;;4.40;;
61897;SDS011;47850;50.274;18.908;2022-07-10T05:01:54;6.30;;;3.90;;
61897;SDS011;47850;50.274;18.908;2022-07-10T05:04:21;6.60;;;4.30;;
61897;SDS011;47850;50.274;18.908;2022-07-10T05:06:47;7.20;;;5.30;;
61897;SDS011;47850;50.274;18.908;2022-07-10T05:09:14;5.70;;;4.60;;
61897;SDS011;47850;50.274;18.908;2022-07-10T05:11:40;5.90;;;4.40;;
61897;SDS011;47850;50.274;18.908;2022-07-10T05:14:07;8.50;;;4.90;;
61897;SDS011;47850;50.274;18.908;2022-07-10T05:16:33;4.40;;;2.40;;
61897;SDS011;47850;50.274;18.908;2022-07-10T05:19:00;6.90;;;4.00;;
61897;SDS011;47850;50.274;18.908;2022-07-10T05:21:26;7.10;;;4.10;;
61897;SDS011;47850;50.274;18.908;2022-07-10T05:23:53;5.10;;;3.80;;
61897;SDS011;47850;50.274;18.908;2022-07-10T05:26:20;6.00;;;3.20;;
61897;SDS011;47850;50.274;18.908;2022-07-10T05:28:46;4.90;;;3.20;;
61897;SDS011;47850;50.274;18.908;2022-07-10T05:31:13;9.10;;;3.10;;
61897;SDS011;47850;50.274;18.908;2022-07-10T05:33:39;6.90;;;4.00;;
61897;SDS011;47850;50.274;18.908;2022-07-10T05:36:07;12.30;;;3.60;;
61897;SDS011;47850;50.274;18.908;2022-07-10T05:38:34;7.80;;;4.20;;
61897;SDS011;47850;50.274;18.908;2022-07-10T05:41:01;3.90;;;2.70;;
61897;SDS011;47850;50.274;18.908;2022-07-10T05:43:28;5.00;;;2.60;;
61897;SDS011;47850;50.274;18.908;2022-07-10T05:45:54;6.20;;;2.90;;
61897;SDS011;47850;50.274;18.908;2022-07-10T05:48:21;3.50;;;2.20;;
61897;SDS011;47850;50.274;18.908;2022-07-10T05:50:47;3.10;;;2.00;;
61897;SDS011;47850;50.274;18.908;2022-07-10T05:53:14;2.70;;;2.20;;
61897;SDS011;47850;50.274;18.908;2022-07-10T05:55:40;2.20;;;1.90;;
61897;SDS011;47850;50.274;18.908;2022-07-10T05:58:07;4.00;;;2.00;;
61897;SDS011;47850;50.274;18.908;2022-07-10T06:00:34;4.60;;;2.40;;
61897;SDS011;47850;50.274;18.908;2022-07-10T06:03:00;3.50;;;2.00;;
61897;SDS011;47850;50.274;18.908;2022-07-10T06:05:27;4.80;;;2.20;;
61897;SDS011;47850;50.274;18.908;2022-07-10T06:07:54;4.00;;;2.00;;
61897;SDS011;47850;50.274;18.908;2022-07-10T06:10:20;3.10;;;2.20;;
61897;SDS011;47850;50.274;18.908;2022-07-10T06:12:47;9.80;;;3.00;;
61897;SDS011;47850;50.274;18.908;2022-07-10T06:15:14;4.20;;;2.70;;
61897;SDS011;47850;50.274;18.908;2022-07-10T06:17:40;7.10;;;1.80;;
61897;SDS011;47850;50.274;18.908;2022-07-10T06:20:07;3.40;;;1.90;;
61897;SDS011;47850;50.274;18.908;2022-07-10T06:22:34;5.20;;;2.50;;
61897;SDS011;47850;50.274;18.908;2022-07-10T06:25:02;8.00;;;3.40;;
61897;SDS011;47850;50.274;18.908;2022-07-10T06:27:30;7.10;;;3.20;;
61897;SDS011;47850;50.274;18.908;2022-07-10T06:29:58;5.40;;;2.70;;
61897;SDS011;47850;50.274;18.908;2022-07-10T06:32:25;3.70;;;2.40;;
61897;SDS011;47850;50.274;18.908;2022-07-10T06:34:53;4.10;;;2.40;;
61897;SDS011;47850;50.274;18.908;2022-07-10T06:37:20;4.40;;;2.00;;
61897;SDS011;47850;50.274;18.908;2022-07-10T06:39:47;3.90;;;2.00;;
61897;SDS011;47850;50.274;18.908;2022-07-10T06:42:14;3.30;;;1.90;;
61897;SDS011;47850;50.274;18.908;2022-07-10T06:44:44;3.90;;;1.90;;
61897;SDS011;47850;50.274;18.908;2022-07-10T06:47:11;5.20;;;3.30;;
61897;SDS011;47850;50.274;18.908;2022-07-10T06:49:58;2.40;;;1.50;;
61897;SDS011;47850;50.274;18.908;2022-07-10T06:52:26;3.30;;;1.40;;
61897;SDS011;47850;50.274;18.908;2022-07-10T06:54:53;4.30;;;1.70;;
61897;SDS011;47850;50.274;18.908;2022-07-10T06:57:20;2.70;;;1.60;;
61897;SDS011;47850;50.274;18.908;2022-07-10T06:59:46;3.80;;;1.80;;
61897;SDS011;47850;50.274;18.908;2022-07-10T07:02:13;3.60;;;1.60;;
61897;SDS011;47850;50.274;18.908;2022-07-10T07:04:40;5.90;;;1.50;;
61897;SDS011;47850;50.274;18.908;2022-07-10T07:07:06;3.70;;;1.40;;
61897;SDS011;47850;50.274;18.908;2022-07-10T07:09:33;9.30;;;4.60;;
61897;SDS011;47850;50.274;18.908;2022-07-10T07:12:00;6.50;;;1.80;;
61897;SDS011;47850;50.274;18.908;2022-07-10T07:14:26;3.40;;;1.60;;
61897;SDS011;47850;50.274;18.908;2022-07-10T07:16:53;4.80;;;1.90;;
61897;SDS011;47850;50.274;18.908;2022-07-10T07:19:37;7.30;;;2.40;;
61897;SDS011;47850;50.274;18.908;2022-07-10T07:22:23;10.50;;;2.40;;
61897;SDS011;47850;50.274;18.908;2022-07-10T07:25:10;6.70;;;2.00;;
61897;SDS011;47850;50.274;18.908;2022-07-10T07:27:37;6.30;;;2.20;;
61897;SDS011;47850;50.274;18.908;2022-07-10T07:30:09;7.30;;;2.60;;
61897;SDS011;47850;50.274;18.908;2022-07-10T07:32:38;7.60;;;3.00;;
61897;SDS011;47850;50.274;18.908;2022-07-10T07:35:05;5.60;;;2.20;;
61897;SDS011;47850;50.274;18.908;2022-07-10T07:37:46;8.40;;;2.90;;
61897;SDS011;47850;50.274;18.908;2022-07-10T07:40:15;7.20;;;3.70;;
61897;SDS011;47850;50.274;18.908;2022-07-10T07:42:46;6.40;;;2.40;;
61897;SDS011;47850;50.274;18.908;2022-07-10T07:45:13;4.30;;;2.00;;
61897;SDS011;47850;50.274;18.908;2022-07-10T07:47:43;3.80;;;1.80;;
61897;SDS011;47850;50.274;18.908;2022-07-10T07:50:12;2.20;;;1.00;;
61897;SDS011;47850;50.274;18.908;2022-07-10T07:52:40;4.10;;;1.40;;
61897;SDS011;47850;50.274;18.908;2022-07-10T07:55:07;3.80;;;1.40;;
61897;SDS011;47850;50.274;18.908;2022-07-10T07:57:36;5.70;;;2.20;;
61897;SDS011;47850;50.274;18.908;2022-07-10T08:00:04;7.30;;;2.20;;
61897;SDS011;47850;50.274;18.908;2022-07-10T08:02:32;7.50;;;2.80;;
61897;SDS011;47850;50.274;18.908;2022-07-10T08:04:59;3.40;;;2.10;;
61897;SDS011;47850;50.274;18.908;2022-07-10T08:07:33;5.10;;;1.70;;
61897;SDS011;47850;50.274;18.908;2022-07-10T08:10:02;3.60;;;1.20;;
61897;SDS011;47850;50.274;18.908;2022-07-10T08:12:30;4.90;;;2.40;;
61897;SDS011;47850;50.274;18.908;2022-07-10T08:14:57;4.20;;;1.50;;
61897;SDS011;47850;50.274;18.908;2022-07-10T08:17:24;18.30;;;11.10;;
61897;SDS011;47850;50.274;18.908;2022-07-10T08:19:52;4.10;;;1.60;;
61897;SDS011;47850;50.274;18.908;2022-07-10T08:22:19;5.60;;;1.90;;
61897;SDS011;47850;50.274;18.908;2022-07-10T08:24:46;2.50;;;1.10;;
61897;SDS011;47850;50.274;18.908;2022-07-10T08:27:12;3.10;;;1.20;;
61897;SDS011;47850;50.274;18.908;2022-07-10T08:29:39;6.60;;;1.80;;
61897;SDS011;47850;50.274;18.908;2022-07-10T08:32:05;7.50;;;2.00;;
61897;SDS011;47850;50.274;18.908;2022-07-10T08:34:32;8.80;;;2.80;;
61897;SDS011;47850;50.274;18.908;2022-07-10T08:36:59;4.80;;;1.90;;
61897;SDS011;47850;50.274;18.908;2022-07-10T08:39:27;4.80;;;1.30;;
61897;SDS011;47850;50.274;18.908;2022-07-10T08:41:53;6.10;;;2.30;;
61897;SDS011;47850;50.274;18.908;2022-07-10T08:44:20;9.40;;;1.80;;
61897;SDS011;47850;50.274;18.908;2022-07-10T08:46:47;7.00;;;2.20;;
61897;SDS011;47850;50.274;18.908;2022-07-10T08:49:14;5.30;;;1.40;;
61897;SDS011;47850;50.274;18.908;2022-07-10T08:51:46;5.30;;;1.70;;
61897;SDS011;47850;50.274;18.908;2022-07-10T08:54:16;4.90;;;1.30;;
61897;SDS011;47850;50.274;18.908;2022-07-10T08:56:44;4.40;;;1.50;;
61897;SDS011;47850;50.274;18.908;2022-07-10T08:59:10;19.80;;;11.00;;
61897;SDS011;47850;50.274;18.908;2022-07-10T09:01:38;13.90;;;3.50;;
61897;SDS011;47850;50.274;18.908;2022-07-10T09:04:05;6.90;;;2.00;;
61897;SDS011;47850;50.274;18.908;2022-07-10T09:06:32;3.60;;;1.90;;
61897;SDS011;47850;50.274;18.908;2022-07-10T09:08:59;13.70;;;8.80;;
61897;SDS011;47850;50.274;18.908;2022-07-10T09:11:30;5.20;;;1.20;;
61897;SDS011;47850;50.274;18.908;2022-07-10T09:13:59;3.80;;;1.60;;
61897;SDS011;47850;50.274;18.908;2022-07-10T09:16:34;3.80;;;1.30;;
61897;SDS011;47850;50.274;18.908;2022-07-10T09:19:36;4.10;;;1.70;;
61897;SDS011;47850;50.274;18.908;2022-07-10T09:22:05;3.20;;;1.10;;
61897;SDS011;47850;50.274;18.908;2022-07-10T09:24:40;3.50;;;1.20;;
61897;SDS011;47850;50.274;18.908;2022-07-10T09:27:11;3.70;;;1.10;;
61897;SDS011;47850;50.274;18.908;2022-07-10T09:29:50;3.90;;;1.30;;
61897;SDS011;47850;50.274;18.908;2022-07-10T09:32:25;3.20;;;1.70;;
61897;SDS011;47850;50.274;18.908;2022-07-10T09:34:52;4.90;;;1.30;;
61897;SDS011;47850;50.274;18.908;2022-07-10T09:37:40;6.80;;;1.40;;
61897;SDS011;47850;50.274;18.908;2022-07-10T09:40:08;4.60;;;1.20;;
61897;SDS011;47850;50.274;18.908;2022-07-10T09:42:38;3.10;;;1.00;;
61897;SDS011;47850;50.274;18.908;2022-07-10T09:47:40;6.00;;;1.50;;
61897;SDS011;47850;50.274;18.908;2022-07-10T09:50:19;2.40;;;1.10;;
61897;SDS011;47850;50.274;18.908;2022-07-10T09:52:45;4.20;;;0.90;;
61897;SDS011;47850;50.274;18.908;2022-07-10T09:55:13;4.20;;;1.00;;
61897;SDS011;47850;50.274;18.908;2022-07-10T09:57:41;5.10;;;1.30;;
61897;SDS011;47850;50.274;18.908;2022-07-10T10:00:10;5.60;;;1.80;;
61897;SDS011;47850;50.274;18.908;2022-07-10T10:02:37;4.40;;;1.90;;
61897;SDS011;47850;50.274;18.908;2022-07-10T10:05:05;12.80;;;5.10;;
61897;SDS011;47850;50.274;18.908;2022-07-10T10:07:33;6.90;;;1.80;;
61897;SDS011;47850;50.274;18.908;2022-07-10T10:10:04;6.80;;;2.00;;
61897;SDS011;47850;50.274;18.908;2022-07-10T10:12:39;5.50;;;1.10;;
61897;SDS011;47850;50.274;18.908;2022-07-10T10:15:11;3.10;;;1.10;;
61897;SDS011;47850;50.274;18.908;2022-07-10T10:17:39;3.90;;;1.20;;
61897;SDS011;47850;50.274;18.908;2022-07-10T10:20:07;5.40;;;1.30;;
61897;SDS011;47850;50.274;18.908;2022-07-10T10:23:04;3.90;;;1.20;;
61897;SDS011;47850;50.274;18.908;2022-07-10T10:25:32;5.40;;;1.00;;
61897;SDS011;47850;50.274;18.908;2022-07-10T10:28:01;3.20;;;0.80;;
61897;SDS011;47850;50.274;18.908;2022-07-10T10:30:32;2.80;;;0.70;;
61897;SDS011;47850;50.274;18.908;2022-07-10T10:33:01;6.70;;;1.30;;
61897;SDS011;47850;50.274;18.908;2022-07-10T10:35:41;4.00;;;1.10;;
61897;SDS011;47850;50.274;18.908;2022-07-10T10:38:10;3.50;;;1.20;;
61897;SDS011;47850;50.274;18.908;2022-07-10T10:40:36;3.50;;;1.10;;
61897;SDS011;47850;50.274;18.908;2022-07-10T10:43:19;6.30;;;1.00;;
61897;SDS011;47850;50.274;18.908;2022-07-10T10:45:47;3.30;;;1.00;;
61897;SDS011;47850;50.274;18.908;2022-07-10T10:48:14;2.90;;;1.10;;
61897;SDS011;47850;50.274;18.908;2022-07-10T10:55:40;3.50;;;0.90;;
61897;SDS011;47850;50.274;18.908;2022-07-10T10:58:16;5.20;;;1.00;;
61897;SDS011;47850;50.274;18.908;2022-07-10T11:00:44;6.10;;;1.00;;
61897;SDS011;47850;50.274;18.908;2022-07-10T11:05:42;11.60;;;7.30;;
61897;SDS011;47850;50.274;18.908;2022-07-10T11:08:10;5.60;;;1.10;;
61897;SDS011;47850;50.274;18.908;2022-07-10T11:13:12;3.30;;;1.10;;
61897;SDS011;47850;50.274;18.908;2022-07-10T11:15:44;4.10;;;1.20;;
61897;SDS011;47850;50.274;18.908;2022-07-10T11:18:18;3.30;;;1.00;;
61897;SDS011;47850;50.274;18.908;2022-07-10T11:20:49;2.20;;;0.80;;
61897;SDS011;47850;50.274;18.908;2022-07-10T11:23:28;3.10;;;1.00;;
61897;SDS011;47850;50.274;18.908;2022-07-10T11:26:13;5.10;;;1.10;;
61897;SDS011;47850;50.274;18.908;2022-07-10T11:31:20;19.90;;;1.20;;
61897;SDS011;47850;50.274;18.908;2022-07-10T11:33:52;3.40;;;1.40;;
61897;SDS011;47850;50.274;18.908;2022-07-10T11:36:24;10.80;;;1.80;;
61897;SDS011;47850;50.274;18.908;2022-07-10T11:38:59;5.60;;;1.70;;
61897;SDS011;47850;50.274;18.908;2022-07-10T11:41:30;4.40;;;1.20;;
61897;SDS011;47850;50.274;18.908;2022-07-10T11:46:32;3.30;;;1.10;;
61897;SDS011;47850;50.274;18.908;2022-07-10T11:49:04;5.30;;;0.90;;
61897;SDS011;47850;50.274;18.908;2022-07-10T11:51:33;5.70;;;1.10;;
61897;SDS011;47850;50.274;18.908;2022-07-10T11:56:31;4.10;;;0.90;;
61897;SDS011;47850;50.274;18.908;2022-07-10T11:59:03;4.10;;;0.80;;
61897;SDS011;47850;50.274;18.908;2022-07-10T12:01:33;1.90;;;0.70;;
61897;SDS011;47850;50.274;18.908;2022-07-10T12:04:05;4.20;;;0.80;;
61897;SDS011;47850;50.274;18.908;2022-07-10T12:06:33;5.80;;;0.60;;
61897;SDS011;47850;50.274;18.908;2022-07-10T12:09:12;3.90;;;0.90;;
61897;SDS011;47850;50.274;18.908;2022-07-10T12:11:40;4.70;;;0.70;;
61897;SDS011;47850;50.274;18.908;2022-07-10T12:16:43;5.10;;;0.70;;
61897;SDS011;47850;50.274;18.908;2022-07-10T12:19:12;2.00;;;0.60;;
61897;SDS011;47850;50.274;18.908;2022-07-10T12:21:43;2.50;;;0.60;;
61897;SDS011;47850;50.274;18.908;2022-07-10T12:24:15;4.10;;;0.90;;
61897;SDS011;47850;50.274;18.908;2022-07-10T12:26:44;3.10;;;0.80;;
61897;SDS011;47850;50.274;18.908;2022-07-10T12:29:29;1.60;;;0.50;;
61897;SDS011;47850;50.274;18.908;2022-07-10T12:31:59;5.40;;;1.80;;
61897;SDS011;47850;50.274;18.908;2022-07-10T12:34:33;3.30;;;0.80;;
61897;SDS011;47850;50.274;18.908;2022-07-10T12:37:10;2.60;;;0.80;;
61897;SDS011;47850;50.274;18.908;2022-07-10T12:39:49;6.50;;;1.00;;
61897;SDS011;47850;50.274;18.908;2022-07-10T12:42:27;5.30;;;0.90;;
61897;SDS011;47850;50.274;18.908;2022-07-10T12:45:11;1.80;;;0.80;;
61897;SDS011;47850;50.274;18.908;2022-07-10T12:47:45;2.70;;;0.70;;
61897;SDS011;47850;50.274;18.908;2022-07-10T12:50:14;3.40;;;0.80;;
61897;SDS011;47850;50.274;18.908;2022-07-10T12:52:46;4.20;;;1.30;;
61897;SDS011;47850;50.274;18.908;2022-07-10T12:55:14;3.00;;;1.50;;
61897;SDS011;47850;50.274;18.908;2022-07-10T13:00:15;3.60;;;1.30;;
61897;SDS011;47850;50.274;18.908;2022-07-10T13:02:45;1.60;;;0.70;;
61897;SDS011;47850;50.274;18.908;2022-07-10T13:05:26;4.30;;;0.70;;
61897;SDS011;47850;50.274;18.908;2022-07-10T13:08:03;2.30;;;0.50;;
61897;SDS011;47850;50.274;18.908;2022-07-10T13:10:33;0.90;;;0.50;;
61897;SDS011;47850;50.274;18.908;2022-07-10T13:13:03;2.40;;;0.70;;
61897;SDS011;47850;50.274;18.908;2022-07-10T13:15:31;4.40;;;0.60;;
61897;SDS011;47850;50.274;18.908;2022-07-10T13:18:00;4.50;;;0.70;;
61897;SDS011;47850;50.274;18.908;2022-07-10T13:20:27;4.10;;;0.70;;
61897;SDS011;47850;50.274;18.908;2022-07-10T13:22:53;1.30;;;0.40;;
61897;SDS011;47850;50.274;18.908;2022-07-10T13:25:20;4.00;;;0.70;;
61897;SDS011;47850;50.274;18.908;2022-07-10T13:27:46;4.00;;;0.80;;
61897;SDS011;47850;50.274;18.908;2022-07-10T13:30:13;3.30;;;0.80;;
61897;SDS011;47850;50.274;18.908;2022-07-10T13:32:40;2.30;;;0.70;;
61897;SDS011;47850;50.274;18.908;2022-07-10T13:35:06;2.00;;;0.60;;
61897;SDS011;47850;50.274;18.908;2022-07-10T13:37:33;2.40;;;0.80;;
61897;SDS011;47850;50.274;18.908;2022-07-10T13:40:00;2.40;;;0.90;;
61897;SDS011;47850;50.274;18.908;2022-07-10T13:42:26;3.70;;;0.80;;
61897;SDS011;47850;50.274;18.908;2022-07-10T13:44:53;5.80;;;1.30;;
61897;SDS011;47850;50.274;18.908;2022-07-10T13:47:21;6.60;;;1.60;;
61897;SDS011;47850;50.274;18.908;2022-07-10T13:49:48;2.40;;;0.90;;
61897;SDS011;47850;50.274;18.908;2022-07-10T13:52:15;3.50;;;1.60;;
61897;SDS011;47850;50.274;18.908;2022-07-10T13:54:42;4.60;;;1.30;;
61897;SDS011;47850;50.274;18.908;2022-07-10T13:57:08;5.50;;;1.50;;
61897;SDS011;47850;50.274;18.908;2022-07-10T13:59:35;6.40;;;2.00;;
61897;SDS011;47850;50.274;18.908;2022-07-10T14:02:02;2.60;;;1.00;;
61897;SDS011;47850;50.274;18.908;2022-07-10T14:04:29;2.00;;;0.90;;
61897;SDS011;47850;50.274;18.908;2022-07-10T14:06:55;5.80;;;0.70;;
61897;SDS011;47850;50.274;18.908;2022-07-10T14:09:22;2.10;;;0.90;;
61897;SDS011;47850;50.274;18.908;2022-07-10T14:14:19;2.90;;;0.80;;
61897;SDS011;47850;50.274;18.908;2022-07-10T14:16:46;2.60;;;0.90;;
61897;SDS011;47850;50.274;18.908;2022-07-10T14:19:12;2.60;;;0.70;;
61897;SDS011;47850;50.274;18.908;2022-07-10T14:21:40;2.10;;;0.60;;
61897;SDS011;47850;50.274;18.908;2022-07-10T14:24:07;1.30;;;0.50;;
61897;SDS011;47850;50.274;18.908;2022-07-10T14:26:34;4.10;;;0.70;;
61897;SDS011;47850;50.274;18.908;2022-07-10T14:29:05;2.20;;;0.60;;
61897;SDS011;47850;50.274;18.908;2022-07-10T14:31:32;2.80;;;0.70;;
61897;SDS011;47850;50.274;18.908;2022-07-10T14:33:59;1.30;;;0.60;;
61897;SDS011;47850;50.274;18.908;2022-07-10T14:36:25;2.20;;;0.40;;
61897;SDS011;47850;50.274;18.908;2022-07-10T14:38:55;3.00;;;0.60;;
61897;SDS011;47850;50.274;18.908;2022-07-10T14:41:23;1.20;;;0.50;;
61897;SDS011;47850;50.274;18.908;2022-07-10T14:43:51;3.10;;;0.80;;
61897;SDS011;47850;50.274;18.908;2022-07-10T14:46:18;3.20;;;0.60;;
61897;SDS011;47850;50.274;18.908;2022-07-10T14:48:44;1.80;;;0.80;;
61897;SDS011;47850;50.274;18.908;2022-07-10T14:51:11;3.00;;;0.80;;
61897;SDS011;47850;50.274;18.908;2022-07-10T14:53:38;2.50;;;0.80;;
61897;SDS011;47850;50.274;18.908;2022-07-10T14:56:07;2.10;;;0.60;;
61897;SDS011;47850;50.274;18.908;2022-07-10T14:58:34;4.30;;;0.70;;
61897;SDS011;47850;50.274;18.908;2022-07-10T15:01:01;2.40;;;0.80;;
61897;SDS011;47850;50.274;18.908;2022-07-10T15:03:29;3.50;;;0.70;;
61897;SDS011;47850;50.274;18.908;2022-07-10T15:05:56;2.10;;;0.80;;
61897;SDS011;47850;50.274;18.908;2022-07-10T15:08:23;2.10;;;0.80;;
61897;SDS011;47850;50.274;18.908;2022-07-10T15:10:50;5.20;;;1.00;;
61897;SDS011;47850;50.274;18.908;2022-07-10T15:13:17;1.70;;;0.50;;